Time;durP1;ratioP1;P1;durP2;ratioP2;P2;SDS_P1;SDS_P2;PMS_P1;PMS_P2;Temp;Humidity;BMP_temperature;BMP_pressure;BME280_temperature;BME280_humidity;BME280_pressure;Samples;Min_cycle;Max_cycle;Signal;HPM_P1;HPM_P2
2023/12/23 00:00:06;;;;;;;1.27;1.13;;;4.30;99.90;;;;;;5099983;28;20565;-78
2023/12/23 00:02:33;;;;;;;4.95;2.45;;;4.30;99.90;;;;;;5100384;28;20706;-87
2023/12/23 00:05:00;;;;;;;2.75;1.00;;;4.40;99.90;;;;;;5100898;28;20571;-78
2023/12/23 00:07:28;;;;;;;3.30;1.77;;;4.40;99.90;;;;;;5100334;28;20219;-79
2023/12/23 00:09:55;;;;;;;1.90;1.30;;;4.40;99.90;;;;;;5100137;28;20578;-78
2023/12/23 00:12:23;;;;;;;3.35;1.70;;;4.40;99.90;;;;;;5101742;28;20226;-85
2023/12/23 00:14:50;;;;;;;3.17;1.13;;;4.50;99.90;;;;;;5107174;28;20223;-86
2023/12/23 00:17:17;;;;;;;1.10;1.00;;;4.40;99.90;;;;;;5084821;28;20223;-78
2023/12/23 00:19:44;;;;;;;1.33;1.23;;;4.50;99.90;;;;;;5085675;28;20223;-78
2023/12/23 00:22:11;;;;;;;1.55;1.30;;;4.50;99.90;;;;;;5083645;28;20225;-78
2023/12/23 00:24:39;;;;;;;1.95;1.70;;;4.50;99.90;;;;;;5099791;28;20215;-78
2023/12/23 00:27:06;;;;;;;5.40;2.85;;;4.50;99.90;;;;;;5104375;28;20284;-86
2023/12/23 00:29:33;;;;;;;5.05;1.55;;;4.50;99.90;;;;;;5103895;28;20220;-86
2023/12/23 00:32:00;;;;;;;1.85;1.67;;;4.50;99.90;;;;;;5102849;28;20234;-86
2023/12/23 00:34:28;;;;;;;5.50;4.57;;;4.50;99.90;;;;;;5101498;28;20231;-78
2023/12/23 00:36:55;;;;;;;3.30;3.00;;;4.40;99.90;;;;;;5099786;28;20230;-85
2023/12/23 00:39:23;;;;;;;5.05;2.95;;;4.50;99.90;;;;;;5099469;28;20235;-86
2023/12/23 00:41:51;;;;;;;14.80;10.27;;;4.50;99.90;;;;;;5101187;28;20225;-87
2023/12/23 00:44:18;;;;;;;14.13;10.30;;;4.50;99.90;;;;;;5100125;28;20219;-87
2023/12/23 00:46:45;;;;;;;2.97;2.15;;;4.50;99.90;;;;;;5099938;28;20744;-78
2023/12/23 00:49:12;;;;;;;1.95;1.45;;;4.50;99.90;;;;;;5099382;28;20238;-78
2023/12/23 00:51:39;;;;;;;2.35;0.80;;;4.50;99.90;;;;;;5098170;28;20219;-78
2023/12/23 00:54:06;;;;;;;1.33;0.98;;;4.50;99.90;;;;;;5090140;28;20224;-78
2023/12/23 00:56:33;;;;;;;1.20;1.10;;;4.50;99.90;;;;;;5080510;28;20681;-78
2023/12/23 00:59:01;;;;;;;3.92;2.03;;;4.50;99.90;;;;;;5079074;28;20669;-85
2023/12/23 01:01:29;;;;;;;1.55;1.45;;;4.50;99.90;;;;;;5076026;28;20212;-78
2023/12/23 01:03:56;;;;;;;0.98;0.95;;;4.60;99.90;;;;;;5076262;28;20264;-86
2023/12/23 01:06:23;;;;;;;2.33;1.17;;;4.50;99.90;;;;;;5075912;28;20224;-86
2023/12/23 01:08:50;;;;;;;2.65;1.23;;;4.50;99.90;;;;;;5076109;28;20232;-86
2023/12/23 01:11:17;;;;;;;1.13;1.02;;;4.50;99.90;;;;;;5075414;28;20222;-78
2023/12/23 01:13:44;;;;;;;2.25;1.90;;;4.50;99.90;;;;;;5076003;28;20251;-86
2023/12/23 01:16:12;;;;;;;1.50;1.20;;;4.60;99.90;;;;;;5075288;28;20230;-78
2023/12/23 01:18:39;;;;;;;2.47;1.70;;;4.60;99.90;;;;;;5075880;28;20303;-86
2023/12/23 01:21:06;;;;;;;1.17;1.08;;;4.60;99.90;;;;;;5075243;28;20234;-78
2023/12/23 01:23:33;;;;;;;2.00;1.40;;;4.60;99.90;;;;;;5084029;28;20261;-84
2023/12/23 01:26:01;;;;;;;4.75;1.60;;;4.70;99.90;;;;;;5095158;28;20733;-79
2023/12/23 01:28:28;;;;;;;6.68;3.05;;;4.70;99.90;;;;;;5095427;28;20286;-78
2023/12/23 01:30:55;;;;;;;2.78;1.20;;;4.70;99.90;;;;;;5095813;28;20231;-78
2023/12/23 01:33:25;;;;;;;3.42;1.85;;;4.70;99.90;;;;;;5095263;28;20243;-85
2023/12/23 01:35:52;;;;;;;5.35;2.00;;;4.60;99.90;;;;;;5095840;28;20223;-86
2023/12/23 01:38:19;;;;;;;5.45;3.13;;;4.50;99.90;;;;;;5095072;28;20227;-86
2023/12/23 01:40:46;;;;;;;8.27;6.13;;;4.60;99.90;;;;;;5098925;28;20694;-78
2023/12/23 01:43:13;;;;;;;14.15;7.00;;;4.60;99.90;;;;;;5097038;28;20227;-86
2023/12/23 01:45:43;;;;;;;4.68;2.50;;;4.60;99.90;;;;;;5095543;28;20226;-78
2023/12/23 01:48:12;;;;;;;4.45;2.00;;;4.60;99.90;;;;;;5095012;28;20570;-85
2023/12/23 01:50:41;;;;;;;4.13;1.60;;;4.60;99.90;;;;;;5095139;28;20227;-86
2023/12/23 01:53:09;;;;;;;3.35;1.83;;;4.70;99.90;;;;;;5094975;28;20251;-86
2023/12/23 01:55:36;;;;;;;2.40;1.40;;;4.70;99.90;;;;;;5095528;28;20695;-86
2023/12/23 01:58:03;;;;;;;2.85;1.65;;;4.60;99.90;;;;;;5095316;28;20585;-86
2023/12/23 02:00:32;;;;;;;7.05;4.90;;;4.60;99.90;;;;;;5082754;28;20227;-78
2023/12/23 02:03:01;;;;;;;2.65;1.50;;;4.60;99.90;;;;;;5074830;28;20223;-78
2023/12/23 02:05:28;;;;;;;4.65;2.58;;;4.60;99.90;;;;;;5074246;28;20231;-78
2023/12/23 02:07:56;;;;;;;1.45;1.20;;;4.60;99.90;;;;;;5074600;28;20258;-78
2023/12/23 02:10:23;;;;;;;2.00;1.77;;;4.60;99.90;;;;;;5073798;28;20236;-78
2023/12/23 02:13:04;;;;;;;2.50;1.60;;;4.70;99.90;;;;;;5073383;28;20251;-86
2023/12/23 02:15:33;;;;;;;2.50;2.30;;;4.60;99.90;;;;;;5082006;28;20223;-86
2023/12/23 02:18:01;;;;;;;3.05;1.70;;;4.70;99.90;;;;;;5094920;28;20700;-86
2023/12/23 02:20:28;;;;;;;6.65;1.85;;;4.70;99.90;;;;;;5094389;28;20223;-86
2023/12/23 02:22:57;;;;;;;9.90;4.35;;;4.70;99.90;;;;;;5094773;28;20227;-79
2023/12/23 02:25:26;;;;;;;3.70;1.45;;;4.70;99.90;;;;;;5082667;28;20227;-86
2023/12/23 02:27:57;;;;;;;3.35;1.63;;;4.80;99.90;;;;;;5108420;28;20223;-78
2023/12/23 02:30:25;;;;;;;2.88;1.15;;;4.70;99.90;;;;;;5093642;28;20227;-86
2023/12/23 02:32:53;;;;;;;6.03;1.85;;;4.70;99.90;;;;;;5094957;28;20231;-86
2023/12/23 02:35:24;;;;;;;5.32;1.58;;;4.70;99.90;;;;;;5093830;28;20231;-85
2023/12/23 02:37:50;;;;;;;2.58;1.35;;;4.70;99.90;;;;;;5094563;28;20284;-86
2023/12/23 02:40:19;;;;;;;2.30;1.90;;;4.60;99.90;;;;;;5093689;28;20220;-79
2023/12/23 02:42:46;;;;;;;2.72;1.45;;;4.70;99.90;;;;;;5094333;28;20307;-78
2023/12/23 02:45:14;;;;;;;2.00;1.73;;;4.70;99.90;;;;;;5094381;28;20233;-86
2023/12/23 02:47:41;;;;;;;6.05;2.45;;;4.60;99.90;;;;;;5093778;28;20226;-78
2023/12/23 02:50:24;;;;;;;;;;;;;;;;;;;;;
2023/12/23 02:52:51;;;;;;;4.18;1.52;;;4.60;99.90;;;;;;5092976;28;20487;-78
2023/12/23 02:55:20;;;;;;;6.43;3.47;;;4.50;99.90;;;;;;5094297;28;20554;-86
2023/12/23 02:57:48;;;;;;;1.38;1.20;;;4.60;99.90;;;;;;5093698;28;25573;-78
2023/12/23 03:00:16;;;;;;;2.22;1.33;;;4.60;99.90;;;;;;5094275;28;20219;-86
2023/12/23 03:02:43;;;;;;;3.88;2.55;;;4.50;99.90;;;;;;5093509;28;20255;-86
2023/12/23 03:05:10;;;;;;;4.93;1.27;;;4.50;99.90;;;;;;5094237;28;20223;-86
2023/12/23 03:07:37;;;;;;;3.00;1.45;;;4.50;99.90;;;;;;5093568;28;20569;-86
2023/12/23 03:10:05;;;;;;;2.45;1.95;;;4.50;99.90;;;;;;5093050;28;20227;-86
2023/12/23 03:12:33;;;;;;;4.00;1.60;;;4.40;99.90;;;;;;5093526;28;20223;-79
2023/12/23 03:15:00;;;;;;;1.30;1.20;;;4.30;99.90;;;;;;5093693;28;20215;-78
2023/12/23 03:17:27;;;;;;;4.43;1.90;;;4.40;99.90;;;;;;5093815;28;20641;-78
2023/12/23 03:19:55;;;;;;;2.08;1.85;;;4.40;99.90;;;;;;5093770;28;20668;-86
2023/12/23 03:22:22;;;;;;;1.60;0.90;;;4.40;99.90;;;;;;5093616;28;20249;-86
2023/12/23 03:24:49;;;;;;;5.07;1.10;;;4.40;99.90;;;;;;5093116;28;20247;-86
2023/12/23 03:27:18;;;;;;;3.22;1.42;;;4.40;99.90;;;;;;5093927;28;20233;-78
2023/12/23 03:29:46;;;;;;;2.45;1.50;;;4.30;99.90;;;;;;5093632;28;20248;-86
2023/12/23 03:32:13;;;;;;;2.47;1.58;;;4.20;99.90;;;;;;5093931;28;20242;-86
2023/12/23 03:34:41;;;;;;;3.55;1.98;;;4.30;99.90;;;;;;5093449;28;20306;-78
2023/12/23 03:37:09;;;;;;;2.45;1.70;;;4.30;99.90;;;;;;5093242;28;20262;-86
2023/12/23 03:39:36;;;;;;;3.90;1.63;;;4.30;99.90;;;;;;5093764;28;20713;-86
2023/12/23 03:42:02;;;;;;;4.88;2.50;;;4.40;99.90;;;;;;5094279;28;20234;-86
2023/12/23 03:44:29;;;;;;;4.43;2.40;;;4.40;99.90;;;;;;5093800;28;20277;-85
2023/12/23 03:46:57;;;;;;;3.10;2.47;;;4.40;99.90;;;;;;5093451;28;20220;-86
2023/12/23 03:49:24;;;;;;;4.68;2.70;;;4.40;99.90;;;;;;5094120;28;20220;-78
2023/12/23 03:51:51;;;;;;;5.18;1.95;;;4.40;99.90;;;;;;5092748;28;20219;-78
2023/12/23 03:54:18;;;;;;;6.03;4.13;;;4.40;99.90;;;;;;5093741;28;20226;-78
2023/12/23 03:56:45;;;;;;;5.43;3.28;;;4.50;99.90;;;;;;5092882;28;20234;-78
2023/12/23 03:59:12;;;;;;;4.53;1.70;;;4.50;99.90;;;;;;5093847;28;20226;-86
2023/12/23 04:01:40;;;;;;;4.22;1.80;;;4.50;99.90;;;;;;5093174;28;20243;-85
2023/12/23 04:04:08;;;;;;;3.58;1.70;;;4.50;99.90;;;;;;5093693;28;20238;-85
2023/12/23 04:06:35;;;;;;;4.40;2.75;;;4.50;99.90;;;;;;5083729;28;20237;-86
2023/12/23 04:09:03;;;;;;;2.10;1.80;;;4.50;99.90;;;;;;5093887;28;20219;-86
2023/12/23 04:11:30;;;;;;;5.88;1.50;;;4.60;99.90;;;;;;5093218;28;20219;-86
2023/12/23 04:13:59;;;;;;;4.80;1.30;;;4.60;99.90;;;;;;5093439;28;20696;-85
2023/12/23 04:16:26;;;;;;;3.83;1.92;;;4.60;99.90;;;;;;5093663;28;20676;-86
2023/12/23 04:18:53;;;;;;;4.20;2.60;;;4.60;99.90;;;;;;5093357;28;20223;-86
2023/12/23 04:21:22;;;;;;;3.88;2.05;;;4.60;99.90;;;;;;5093988;28;20242;-85
2023/12/23 04:23:49;;;;;;;3.90;1.75;;;4.60;99.90;;;;;;5093570;28;20305;-85
2023/12/23 04:26:16;;;;;;;6.63;2.38;;;4.60;99.90;;;;;;5094168;28;20246;-85
2023/12/23 04:28:43;;;;;;;7.45;2.08;;;4.70;99.90;;;;;;5092905;28;20228;-85
2023/12/23 04:31:10;;;;;;;6.35;2.50;;;4.60;99.90;;;;;;5095632;28;20308;-86
2023/12/23 04:33:37;;;;;;;2.72;2.00;;;4.70;99.90;;;;;;5098008;28;20235;-86
2023/12/23 04:36:04;;;;;;;5.45;2.28;;;4.70;99.90;;;;;;5094588;28;20284;-78
2023/12/23 04:38:35;;;;;;;1.98;1.35;;;4.80;99.90;;;;;;5105380;28;20215;-86
2023/12/23 04:41:02;;;;;;;2.70;1.38;;;4.80;99.90;;;;;;5106569;28;20276;-86
2023/12/23 04:43:30;;;;;;;3.50;1.88;;;4.90;99.90;;;;;;5105523;28;20273;-86
2023/12/23 04:45:57;;;;;;;2.75;1.90;;;4.90;99.90;;;;;;5103655;28;20280;-78
2023/12/23 04:48:25;;;;;;;7.32;1.63;;;5.00;99.90;;;;;;5097416;28;20226;-78
2023/12/23 04:50:52;;;;;;;5.65;1.50;;;5.00;99.90;;;;;;5097254;28;20238;-86
2023/12/23 04:53:22;;;;;;;5.93;2.97;;;5.00;99.90;;;;;;5097894;28;20291;-86
2023/12/23 04:55:50;;;;;;;7.47;2.42;;;5.00;99.90;;;;;;5096751;28;20223;-86
2023/12/23 04:58:17;;;;;;;5.43;2.00;;;5.00;99.90;;;;;;5097209;28;20230;-78
2023/12/23 05:00:44;;;;;;;5.85;2.33;;;5.00;99.90;;;;;;5096327;28;20227;-78
2023/12/23 05:03:12;;;;;;;4.40;2.20;;;5.10;99.90;;;;;;5096463;28;20223;-78
2023/12/23 05:05:41;;;;;;;5.97;1.77;;;5.10;99.90;;;;;;5096247;28;20220;-86
2023/12/23 05:08:08;;;;;;;5.90;1.70;;;5.10;99.90;;;;;;5096381;28;20215;-86
2023/12/23 05:10:36;;;;;;;5.70;1.75;;;5.10;99.90;;;;;;5096611;28;20246;-86
2023/12/23 05:13:04;;;;;;;10.77;3.67;;;5.20;99.90;;;;;;5095790;28;20223;-79
2023/12/23 05:15:34;;;;;;;8.32;4.53;;;5.20;99.90;;;;;;5096604;28;20300;-86
2023/12/23 05:18:01;;;;;;;5.60;2.30;;;5.20;99.90;;;;;;5095789;28;20227;-86
2023/12/23 05:20:29;;;;;;;6.10;2.10;;;5.20;99.90;;;;;;5096333;28;20251;-86
2023/12/23 05:22:56;;;;;;;7.25;2.08;;;5.20;99.90;;;;;;5095232;28;20230;-86
2023/12/23 05:25:25;;;;;;;6.03;3.25;;;5.30;99.90;;;;;;5096272;28;20571;-86
2023/12/23 05:27:52;;;;;;;7.57;2.95;;;5.30;99.90;;;;;;5095235;28;20238;-86
2023/12/23 05:30:20;;;;;;;8.70;2.42;;;5.30;99.90;;;;;;5095770;28;20234;-86
2023/12/23 05:32:47;;;;;;;12.02;2.10;;;5.40;99.90;;;;;;5095421;28;20228;-86
2023/12/23 05:35:14;;;;;;;8.45;2.38;;;5.40;99.90;;;;;;5095628;28;20219;-86
2023/12/23 05:37:41;;;;;;;7.47;2.60;;;5.40;99.90;;;;;;5095500;28;20300;-85
2023/12/23 05:40:10;;;;;;;10.02;3.03;;;5.40;99.90;;;;;;5094889;28;20225;-78
2023/12/23 05:42:37;;;;;;;9.43;2.30;;;5.40;99.90;;;;;;5095222;28;20228;-85
2023/12/23 05:45:05;;;;;;;8.15;2.85;;;5.40;99.90;;;;;;5095014;28;20242;-78
2023/12/23 05:47:33;;;;;;;5.95;2.05;;;5.40;99.90;;;;;;5095369;28;20219;-86
2023/12/23 05:50:00;;;;;;;6.28;2.22;;;5.50;99.90;;;;;;5095240;28;20223;-78
2023/12/23 05:52:27;;;;;;;4.72;1.98;;;5.50;99.90;;;;;;5095405;28;20223;-77
2023/12/23 05:54:54;;;;;;;10.77;3.08;;;5.50;99.90;;;;;;5094699;28;20223;-78
2023/12/23 05:57:24;;;;;;;7.32;2.55;;;5.50;99.90;;;;;;5095390;28;20230;-78
2023/12/23 05:59:52;;;;;;;7.00;2.15;;;5.50;99.90;;;;;;5095150;28;20222;-86
2023/12/23 06:02:19;;;;;;;6.95;2.40;;;5.50;99.90;;;;;;5095445;28;20234;-86
2023/12/23 06:04:47;;;;;;;7.60;2.15;;;5.50;99.90;;;;;;5095640;28;20224;-85
2023/12/23 06:07:14;;;;;;;9.07;1.98;;;5.60;99.90;;;;;;5094346;28;20215;-77
2023/12/23 06:09:41;;;;;;;7.20;5.22;;;5.60;99.90;;;;;;5094726;28;20310;-78
2023/12/23 06:12:09;;;;;;;4.32;2.03;;;5.50;99.90;;;;;;5094427;28;20253;-78
2023/12/23 06:14:36;;;;;;;5.47;1.85;;;5.50;99.90;;;;;;5095029;28;20219;-78
2023/12/23 06:17:03;;;;;;;5.32;2.00;;;5.50;99.90;;;;;;5094401;28;20238;-77
2023/12/23 06:19:30;;;;;;;7.40;1.95;;;5.50;99.90;;;;;;5095216;28;20556;-77
2023/12/23 06:22:00;;;;;;;5.38;1.92;;;5.50;99.90;;;;;;5094467;28;20592;-78
2023/12/23 06:24:28;;;;;;;6.55;2.55;;;5.60;99.90;;;;;;5093719;28;20237;-78
2023/12/23 06:26:55;;;;;;;6.95;2.30;;;5.50;99.90;;;;;;5094685;28;20227;-85
2023/12/23 06:29:22;;;;;;;6.45;2.30;;;5.50;99.90;;;;;;5096933;28;20302;-85
2023/12/23 06:31:51;;;;;;;4.88;2.28;;;5.50;99.90;;;;;;5095243;28;20278;-85
2023/12/23 06:34:19;;;;;;;8.32;2.60;;;5.50;99.90;;;;;;5094720;28;20692;-85
2023/12/23 06:36:46;;;;;;;6.30;3.33;;;5.50;99.90;;;;;;5094236;28;20242;-86
2023/12/23 06:39:14;;;;;;;5.30;3.00;;;5.50;99.90;;;;;;5095307;28;20223;-85
2023/12/23 06:41:41;;;;;;;5.43;1.88;;;5.50;99.90;;;;;;5094619;28;20242;-86
2023/12/23 06:44:08;;;;;;;6.78;2.13;;;5.40;99.90;;;;;;5093910;28;20227;-78
2023/12/23 06:46:35;;;;;;;4.85;2.88;;;5.50;99.90;;;;;;5094011;28;20223;-78
2023/12/23 06:49:05;;;;;;;4.35;2.40;;;5.40;99.90;;;;;;5093909;28;20224;-78
2023/12/23 06:51:32;;;;;;;5.82;1.63;;;5.40;99.90;;;;;;5094463;28;20231;-78
2023/12/23 06:53:59;;;;;;;6.97;2.40;;;5.40;99.90;;;;;;5093334;28;20680;-78
2023/12/23 06:56:28;;;;;;;12.20;2.80;;;5.50;99.90;;;;;;5094287;28;20241;-78
2023/12/23 06:58:55;;;;;;;4.50;2.20;;;5.50;99.90;;;;;;5093568;28;20301;-78
2023/12/23 07:01:22;;;;;;;7.65;2.53;;;5.40;99.90;;;;;;5093945;28;20241;-86
2023/12/23 07:03:49;;;;;;;10.80;3.15;;;5.40;99.90;;;;;;5093649;28;20254;-86
2023/12/23 07:06:16;;;;;;;9.52;2.50;;;5.40;99.90;;;;;;5093795;28;20215;-78
2023/12/23 07:08:43;;;;;;;7.35;2.55;;;5.40;99.90;;;;;;5094035;28;20230;-78
2023/12/23 07:11:11;;;;;;;6.95;2.45;;;5.50;99.90;;;;;;5093578;28;20254;-86
2023/12/23 07:13:39;;;;;;;7.03;2.70;;;5.50;99.90;;;;;;5093724;28;20672;-86
2023/12/23 07:16:08;;;;;;;7.55;2.20;;;5.50;99.90;;;;;;5093970;28;20227;-78
2023/12/23 07:18:35;;;;;;;3.80;1.88;;;5.50;99.90;;;;;;5093872;28;20227;-86
2023/12/23 07:21:02;;;;;;;5.00;1.58;;;5.50;99.90;;;;;;5093361;28;20219;-78
2023/12/23 07:23:29;;;;;;;4.38;1.50;;;5.60;99.90;;;;;;5093673;28;20281;-78
2023/12/23 07:25:57;;;;;;;3.35;2.10;;;5.60;99.90;;;;;;5093514;28;20234;-78
2023/12/23 07:28:24;;;;;;;4.57;1.48;;;5.70;99.90;;;;;;5093536;28;20233;-86
2023/12/23 07:30:52;;;;;;;4.28;2.03;;;5.60;99.90;;;;;;5094334;28;20223;-85
2023/12/23 07:33:19;;;;;;;15.90;1.65;;;5.60;99.90;;;;;;5092867;28;20228;-84
2023/12/23 07:35:46;;;;;;;2.85;1.40;;;5.60;99.90;;;;;;5093650;28;20223;-85
2023/12/23 07:38:23;;;;;;;3.80;1.70;;;5.60;99.90;;;;;;5093715;28;20700;-77
2023/12/23 07:40:50;;;;;;;8.38;1.95;;;5.60;99.90;;;;;;5093685;28;20231;-86
2023/12/23 07:43:23;;;;;;;3.83;1.95;;;5.60;99.90;;;;;;5092988;28;20227;-77
2023/12/23 07:45:52;;;;;;;3.72;1.70;;;5.60;99.90;;;;;;5093110;28;20257;-77
2023/12/23 07:48:19;;;;;;;8.93;2.60;;;5.60;99.90;;;;;;5092905;28;20265;-85
2023/12/23 07:50:58;;;;;;;4.45;1.52;;;5.60;99.90;;;;;;5093401;28;20230;-87
2023/12/23 07:53:28;;;;;;;2.97;1.60;;;5.60;99.90;;;;;;5092744;28;20273;-85
2023/12/23 07:55:55;;;;;;;7.18;3.00;;;5.60;99.90;;;;;;5092154;28;20215;-85
2023/12/23 07:58:22;;;;;;;3.42;1.70;;;5.60;99.90;;;;;;5092202;28;20219;-77
2023/12/23 08:00:53;;;;;;;4.50;1.15;;;5.60;99.90;;;;;;5093743;28;20219;-85
2023/12/23 08:03:21;;;;;;;6.18;2.30;;;5.60;99.90;;;;;;5092724;28;20692;-85
2023/12/23 08:05:47;;;;;;;4.70;1.85;;;5.60;99.90;;;;;;5092666;28;20223;-86
2023/12/23 08:08:23;;;;;;;4.45;1.83;;;5.60;99.90;;;;;;5081941;28;20227;-78
2023/12/23 08:10:52;;;;;;;5.03;1.63;;;5.70;99.90;;;;;;5096030;28;20219;-86
2023/12/23 08:13:20;;;;;;;1.80;1.33;;;5.70;99.90;;;;;;5097506;28;20242;-78
2023/12/23 08:15:47;;;;;;;2.88;1.40;;;5.70;99.90;;;;;;5097460;28;20800;-78
2023/12/23 08:18:17;;;;;;;2.03;1.30;;;5.70;99.90;;;;;;5096837;28;20566;-77
2023/12/23 08:20:44;;;;;;;3.78;1.50;;;5.70;99.90;;;;;;5097442;28;20258;-77
2023/12/23 08:23:11;;;;;;;6.15;1.88;;;5.70;99.90;;;;;;5096636;28;20238;-77
2023/12/23 08:25:38;;;;;;;4.38;1.70;;;5.70;99.90;;;;;;5097776;28;20227;-85
2023/12/23 08:28:07;;;;;;;4.43;1.48;;;5.70;99.90;;;;;;5097587;28;20226;-85
2023/12/23 08:30:34;;;;;;;1.88;1.52;;;5.70;99.90;;;;;;5097629;28;20223;-85
2023/12/23 08:33:01;;;;;;;3.60;1.40;;;5.70;99.90;;;;;;5096656;28;20227;-78
2023/12/23 08:35:29;;;;;;;4.13;1.83;;;5.80;99.90;;;;;;5097131;28;20215;-85
2023/12/23 08:37:57;;;;;;;8.35;4.40;;;5.80;99.90;;;;;;5096463;28;20219;-85
2023/12/23 08:40:24;;;;;;;7.97;4.10;;;5.80;99.90;;;;;;5096765;28;20220;-78
2023/12/23 08:42:51;;;;;;;5.03;3.72;;;5.80;99.90;;;;;;5085874;28;20231;-77
2023/12/23 08:45:18;;;;;;;4.88;2.72;;;5.80;99.90;;;;;;5096326;28;20219;-77
2023/12/23 08:47:45;;;;;;;5.95;2.92;;;5.80;99.90;;;;;;5085711;28;20247;-78
2023/12/23 08:50:14;;;;;;;6.32;2.70;;;5.90;99.90;;;;;;5097984;28;20668;-78
2023/12/23 08:52:42;;;;;;;4.43;2.53;;;5.80;99.90;;;;;;5103812;28;20239;-86
2023/12/23 08:55:10;;;;;;;4.72;2.92;;;5.90;99.90;;;;;;5106830;28;20233;-86
2023/12/23 08:57:38;;;;;;;4.90;3.13;;;5.90;99.90;;;;;;5102807;28;20234;-78
2023/12/23 09:00:07;;;;;;;8.05;3.00;;;5.80;99.90;;;;;;5097240;28;20227;-78
2023/12/23 09:02:35;;;;;;;3.28;2.45;;;5.80;99.90;;;;;;5098140;28;20226;-86
2023/12/23 09:05:02;;;;;;;7.22;2.78;;;5.80;99.90;;;;;;5096660;28;20226;-86
2023/12/23 09:07:29;;;;;;;5.55;2.45;;;5.90;99.90;;;;;;5096947;28;20223;-87
2023/12/23 09:09:58;;;;;;;12.23;5.50;;;5.90;99.90;;;;;;5097654;28;20247;-86
2023/12/23 09:12:25;;;;;;;5.35;2.97;;;5.90;99.90;;;;;;5094940;28;20619;-79
2023/12/23 09:14:52;;;;;;;8.35;3.03;;;6.00;99.90;;;;;;5096515;28;20258;-85
2023/12/23 09:17:19;;;;;;;7.82;2.30;;;5.90;99.90;;;;;;5095620;28;20240;-86
2023/12/23 09:19:47;;;;;;;10.00;2.85;;;6.00;99.90;;;;;;5096716;28;20238;-86
2023/12/23 09:22:13;;;;;;;5.35;2.40;;;6.00;99.90;;;;;;5094869;28;20227;-85
2023/12/23 09:24:51;;;;;;;4.55;3.03;;;5.90;99.90;;;;;;5096307;28;20223;-78
2023/12/23 09:27:20;;;;;;;6.20;2.40;;;5.90;99.90;;;;;;5095131;28;20685;-77
2023/12/23 09:29:47;;;;;;;4.85;1.83;;;5.90;99.90;;;;;;5095883;28;20224;-79
2023/12/23 09:32:15;;;;;;;5.05;2.40;;;5.80;99.90;;;;;;5095649;28;20243;-77
2023/12/23 09:34:42;;;;;;;2.97;2.65;;;5.90;99.90;;;;;;5095348;28;20223;-79
2023/12/23 09:37:09;;;;;;;8.90;2.08;;;5.80;99.90;;;;;;5095612;28;20223;-78
2023/12/23 09:39:36;;;;;;;3.05;1.80;;;5.80;99.90;;;;;;5095463;28;20300;-79
2023/12/23 09:42:03;;;;;;;2.72;1.10;;;5.80;99.90;;;;;;5095972;28;20704;-79
2023/12/23 09:44:32;;;;;;;2.60;1.50;;;5.70;99.90;;;;;;5095346;28;20232;-86
2023/12/23 09:46:59;;;;;;;2.17;1.35;;;5.60;99.90;;;;;;5095855;28;20230;-86
2023/12/23 09:49:27;;;;;;;5.10;1.52;;;5.70;99.90;;;;;;5094950;28;20311;-86
2023/12/23 09:51:57;;;;;;;2.97;2.03;;;5.60;99.90;;;;;;5095674;28;20615;-86
2023/12/23 09:54:27;;;;;;;5.55;1.55;;;5.60;99.90;;;;;;5095791;28;20227;-86
2023/12/23 09:56:56;;;;;;;3.28;1.40;;;5.60;99.90;;;;;;5095078;28;20234;-86
2023/12/23 09:59:24;;;;;;;4.35;2.00;;;5.60;99.90;;;;;;5093351;28;20689;-86
2023/12/23 10:01:54;;;;;;;3.47;1.90;;;5.50;99.90;;;;;;5095723;28;20223;-87
2023/12/23 10:04:21;;;;;;;1.60;1.48;;;5.50;99.90;;;;;;5094848;28;20760;-86
2023/12/23 10:06:55;;;;;;;5.57;2.65;;;5.50;99.90;;;;;;5095390;28;20250;-87
2023/12/23 10:09:23;;;;;;;2.92;1.67;;;5.50;99.90;;;;;;5094758;28;20306;-86
2023/12/23 10:11:50;;;;;;;2.40;1.30;;;5.40;99.90;;;;;;5095489;28;20228;-86
2023/12/23 10:14:20;;;;;;;4.15;1.70;;;5.40;99.90;;;;;;5097917;28;20246;-86
2023/12/23 10:16:47;;;;;;;2.53;1.60;;;5.40;99.90;;;;;;5095059;28;20234;-87
2023/12/23 10:19:16;;;;;;;4.05;2.33;;;5.40;99.90;;;;;;5094788;28;20227;-87
2023/12/23 10:21:43;;;;;;;3.53;3.08;;;5.50;99.90;;;;;;5094854;28;20559;-87
2023/12/23 10:24:10;;;;;;;6.53;5.20;;;5.50;99.90;;;;;;5095040;28;20250;-86
2023/12/23 10:26:41;;;;;;;10.10;7.28;;;5.50;99.90;;;;;;5094647;28;20227;-87
2023/12/23 10:29:11;;;;;;;7.35;4.72;;;5.50;99.90;;;;;;5094593;28;20681;-87
2023/12/23 10:31:39;;;;;;;2.33;2.13;;;5.50;99.90;;;;;;5093960;28;20227;-87
2023/12/23 10:34:09;;;;;;;7.50;3.20;;;5.50;99.90;;;;;;5093820;28;20223;-87
2023/12/23 10:36:38;;;;;;;3.40;2.30;;;5.50;99.90;;;;;;5093946;28;20318;-87
2023/12/23 10:39:14;;;;;;;2.38;2.08;;;5.50;99.90;;;;;;5095359;28;20234;-87
2023/12/23 10:41:52;;;;;;;3.25;2.50;;;5.50;99.90;;;;;;5084028;28;20232;-87
2023/12/23 10:44:19;;;;;;;4.55;2.50;;;5.50;99.90;;;;;;5082843;28;20218;-87
2023/12/23 10:46:50;;;;;;;3.70;1.80;;;5.40;99.90;;;;;;5093553;28;20233;-87
2023/12/23 10:49:18;;;;;;;2.47;1.77;;;5.50;99.90;;;;;;5094286;28;20288;-87
2023/12/23 10:51:56;;;;;;;3.70;2.17;;;5.50;99.90;;;;;;5094031;28;20227;-87
2023/12/23 10:54:25;;;;;;;4.25;2.05;;;5.50;99.90;;;;;;5094638;28;20227;-86
2023/12/23 10:56:53;;;;;;;2.75;2.08;;;5.50;99.90;;;;;;5094053;28;20219;-77
2023/12/23 10:59:24;;;;;;;4.72;3.47;;;5.50;99.90;;;;;;5094088;28;20223;-77
2023/12/23 11:01:52;;;;;;;2.97;2.78;;;5.50;99.90;;;;;;5093705;28;20220;-77
2023/12/23 11:04:20;;;;;;;3.30;2.45;;;5.40;99.90;;;;;;5093930;28;20238;-77
2023/12/23 11:06:52;;;;;;;3.80;2.67;;;5.40;99.90;;;;;;5093803;28;20346;-77
2023/12/23 11:09:20;;;;;;;2.33;1.60;;;5.40;99.90;;;;;;5093682;28;20219;-78
2023/12/23 11:11:48;;;;;;;1.65;1.42;;;5.40;99.90;;;;;;5093371;28;20242;-77
2023/12/23 11:14:15;;;;;;;1.42;1.33;;;5.40;99.90;;;;;;5093866;28;20280;-78
2023/12/23 11:16:43;;;;;;;2.10;1.30;;;5.40;99.90;;;;;;5093327;28;20241;-78
2023/12/23 11:19:10;;;;;;;3.70;1.90;;;5.30;99.90;;;;;;5093618;28;20231;-77
2023/12/23 11:21:37;;;;;;;2.10;1.38;;;5.30;99.90;;;;;;5097184;28;20219;-77
2023/12/23 11:24:33;;;;;;;2.70;1.85;;;5.30;99.90;;;;;;5093625;28;20227;-77
2023/12/23 11:27:00;;;;;;;4.20;1.95;;;5.30;99.90;;;;;;5093473;28;20215;-78
2023/12/23 11:29:27;;;;;;;4.05;3.03;;;5.30;99.90;;;;;;5093200;28;20219;-77
2023/12/23 11:32:10;;;;;;;4.50;2.53;;;5.30;99.90;;;;;;5092892;28;20227;-77
2023/12/23 11:34:37;;;;;;;4.00;3.70;;;5.20;99.90;;;;;;5093355;28;20227;-77
2023/12/23 11:37:04;;;;;;;2.85;2.65;;;5.20;99.90;;;;;;5093421;28;20229;-78
2023/12/23 11:39:57;;;;;;;2.58;2.38;;;5.20;99.90;;;;;;5083189;28;20301;-86
2023/12/23 11:42:24;;;;;;;2.95;1.95;;;5.20;99.90;;;;;;5092291;28;20267;-86
2023/12/23 11:44:52;;;;;;;4.88;2.28;;;5.20;99.90;;;;;;5093538;28;20227;-77
2023/12/23 11:47:19;;;;;;;3.13;2.22;;;5.20;99.90;;;;;;5093032;28;20227;-77
2023/12/23 11:49:46;;;;;;;1.92;1.70;;;5.20;99.90;;;;;;5093293;28;20223;-77
2023/12/23 11:52:13;;;;;;;5.78;4.90;;;5.20;99.90;;;;;;5092421;28;20231;-77
2023/12/23 11:54:41;;;;;;;7.38;4.40;;;5.20;99.90;;;;;;5093288;28;20266;-77
2023/12/23 11:57:10;;;;;;;5.40;3.90;;;5.20;99.90;;;;;;5092595;28;20235;-85
2023/12/23 11:59:38;;;;;;;2.75;2.25;;;5.30;99.90;;;;;;5093669;28;20230;-86
2023/12/23 12:02:05;;;;;;;8.27;2.40;;;5.20;99.90;;;;;;5092694;28;20234;-77
2023/12/23 12:04:32;;;;;;;2.70;2.50;;;5.20;99.90;;;;;;5092590;28;20230;-78
2023/12/23 12:06:59;;;;;;;2.20;2.00;;;5.20;99.90;;;;;;5093387;28;20223;-78
2023/12/23 12:09:26;;;;;;;2.45;2.00;;;5.20;99.90;;;;;;5092855;28;20219;-79
2023/12/23 12:11:53;;;;;;;2.35;1.73;;;5.20;99.90;;;;;;5178330;22;20231;-79
2023/12/23 12:14:21;;;;;;;2.55;1.90;;;5.20;99.90;;;;;;5092028;28;20223;-78
2023/12/23 12:16:48;;;;;;;2.53;2.28;;;5.20;99.90;;;;;;5093303;28;20289;-78
2023/12/23 12:19:16;;;;;;;2.58;2.38;;;5.10;99.90;;;;;;5092455;28;20223;-87
2023/12/23 12:21:44;;;;;;;1.25;1.15;;;5.10;99.90;;;;;;5093811;28;20227;-87
2023/12/23 12:24:11;;;;;;;3.67;1.40;;;5.00;99.90;;;;;;5093126;28;20306;-86
2023/12/23 12:26:38;;;;;;;2.90;0.98;;;5.00;99.90;;;;;;5093950;28;20219;-78
2023/12/23 12:29:05;;;;;;;1.65;1.10;;;5.00;99.90;;;;;;5092951;28;20227;-78
2023/12/23 12:31:34;;;;;;;2.88;1.10;;;5.00;99.90;;;;;;5092635;28;20234;-78
2023/12/23 12:34:01;;;;;;;2.85;1.38;;;4.90;99.90;;;;;;5093100;28;20622;-78
2023/12/23 12:36:28;;;;;;;2.63;1.20;;;4.90;99.90;;;;;;5092633;28;20215;-87
2023/12/23 12:38:58;;;;;;;2.20;2.00;;;5.00;99.90;;;;;;5093465;28;20228;-86
2023/12/23 12:41:26;;;;;;;2.45;1.20;;;5.00;99.90;;;;;;5092652;28;20247;-86
2023/12/23 12:43:56;;;;;;;1.13;1.02;;;5.00;99.90;;;;;;5093587;28;20635;-87
2023/12/23 12:46:23;;;;;;;3.40;1.92;;;5.10;99.90;;;;;;5093214;28;20265;-87
2023/12/23 12:48:52;;;;;;;1.80;0.98;;;5.10;99.90;;;;;;5093911;28;20616;-87
2023/12/23 12:51:20;;;;;;;1.60;1.50;;;5.10;99.90;;;;;;5082007;28;20232;-87
2023/12/23 12:53:47;;;;;;;2.22;1.30;;;5.20;99.90;;;;;;5093770;28;20227;-87
2023/12/23 12:56:21;;;;;;;4.10;1.27;;;5.20;99.90;;;;;;5093097;28;20219;-86
2023/12/23 12:58:50;;;;;;;1.70;1.45;;;5.30;99.90;;;;;;5097499;28;20226;-86
2023/12/23 13:01:17;;;;;;;3.00;1.50;;;5.30;99.90;;;;;;5097777;28;20218;-87